This is the latest recevied weather packets stored in our database for station/object OK2ZI. If no packets are shown the sender has not sent any weather packets the latest 10 day(s).
| Time | Temp. | Humidity | Pressure | Rain* | Wind** | Luminosity | Snow |
|---|---|---|---|---|---|---|---|
| 1777896367 | 23.89° C | 40% | 1012 hPa | 0 mm | - | - | - |
| 1777895778 | 23.33° C | 41% | 1012 hPa | 0 mm | - | - | - |
| 1777894689 | 23.33° C | 41% | 1012 hPa | 0 mm | - | - | - |
| 1777893369 | 23.33° C | 43% | 1012 hPa | 0 mm | - | - | - |
| 1777892653 | 23.33° C | 41% | 1012 hPa | 0 mm | - | - | - |
| 1777892167 | 22.78° C | 41% | 1012 hPa | 0 mm | - | - | - |
| 1777891815 | 21.67° C | 42% | 1012 hPa | 0 mm | - | - | - |
| 1777891088 | 20.56° C | 47% | 1012 hPa | 0 mm | - | - | - |
| 1777890967 | 20.56° C | 48% | 1012 hPa | 0 mm | - | - | - |
| 1777890853 | 20.56° C | 49% | 1012 hPa | 0 mm | - | - | - |
| 1777889771 | 20.56° C | 46% | 1012 hPa | 0 mm | - | - | - |
| 1777888689 | 21.11° C | 44% | 1013 hPa | 0 mm | - | - | - |
| 1777887127 | 19.44° C | 48% | 1013 hPa | 0 mm | - | - | - |
| 1777886767 | 20° C | 47% | 1013 hPa | 0 mm | - | - | - |
| 1777886527 | 19.44° C | 47% | 1013 hPa | 0 mm | - | - | - |
| 1777885813 | 19.44° C | 50% | 1013 hPa | 0 mm | - | - | - |
| 1777885688 | 19.44° C | 48% | 1013 hPa | 0 mm | - | - | - |
| 1777884015 | 18.33° C | 48% | 1012 hPa | 0 mm | - | - | - |
| 1777883050 | 18.89° C | 48% | 1013 hPa | 0 mm | - | - | - |
| 1777882327 | 18.33° C | 49% | 1013 hPa | 0 mm | - | - | - |
| 1777880168 | 18.33° C | 50% | 1012 hPa | 0 mm | - | - | - |
| 1777879818 | 17.78° C | 49% | 1012 hPa | 0 mm | - | - | - |
| 1777878966 | 16.67° C | 50% | 1012 hPa | 0 mm | - | - | - |
| 1777878848 | 16.67° C | 51% | 1012 hPa | 0 mm | - | - | - |
| 1777877167 | 15.56° C | 54% | 1012 hPa | 0 mm | - | - | - |
* Rain latest hour (hover to see other rain measurements)
** Current wind speed in m/s (hover to see current wind gust speed)